createdAt,value
2022-10-25T00:01:19.027Z,11.13
2022-10-25T00:03:47.476Z,10.77
2022-10-25T00:06:17.106Z,11.13
2022-10-25T00:08:45.318Z,12.00
2022-10-25T00:11:19.404Z,11.90
2022-10-25T00:13:49.047Z,11.13
2022-10-25T00:16:18.283Z,12.03
2022-10-25T00:18:46.368Z,12.17
2022-10-25T00:21:14.632Z,10.90
2022-10-25T00:23:44.125Z,12.53
2022-10-25T00:26:13.422Z,11.40
2022-10-25T00:28:41.736Z,11.00
2022-10-25T00:31:12.143Z,11.37
2022-10-25T00:33:41.427Z,12.60
2022-10-25T00:36:11.943Z,10.80
2022-10-25T00:38:40.592Z,10.67
2022-10-25T00:41:10.631Z,10.20
2022-10-25T00:43:40.649Z,9.73
2022-10-25T00:46:14.081Z,11.57
2022-10-25T00:48:46.798Z,9.80
2022-10-25T00:51:15.245Z,10.33
2022-10-25T00:53:44.465Z,9.90
2022-10-25T00:56:17.940Z,10.17
2022-10-25T00:58:50.610Z,9.77
2022-10-25T01:01:19.483Z,9.90
2022-10-25T01:03:50.641Z,10.13
2022-10-25T01:06:22.187Z,9.40
2022-10-25T01:08:53.111Z,10.43
2022-10-25T01:11:22.667Z,9.80
2022-10-25T01:13:52.314Z,10.80
2022-10-25T01:16:26.677Z,9.70
2022-10-25T01:19:04.174Z,10.10
2022-10-25T01:21:46.639Z,10.70
2022-10-25T01:25:01.927Z,10.43
2022-10-25T01:27:53.419Z,10.40
2022-10-25T01:30:24.229Z,9.67
2022-10-25T01:33:06.205Z,7.80
2022-10-25T01:35:44.198Z,8.63
2022-10-25T01:38:39.877Z,8.17
2022-10-25T01:41:18.799Z,8.70
2022-10-25T01:44:02.863Z,7.60
2022-10-25T01:46:37.730Z,7.83
2022-10-25T01:49:13.494Z,9.07
2022-10-25T01:51:41.552Z,7.77
2022-10-25T01:54:20.343Z,7.40
2022-10-25T01:57:07.394Z,8.07
2022-10-25T01:59:51.746Z,7.43
2022-10-25T02:02:27.271Z,8.43
2022-10-25T02:05:06.375Z,7.53
2022-10-25T02:07:39.257Z,7.83
2022-10-25T02:10:11.758Z,8.57
2022-10-25T02:12:56.888Z,7.37
2022-10-25T02:15:31.491Z,8.60
2022-10-25T02:18:02.112Z,8.33
2022-10-25T02:20:35.705Z,8.90
2022-10-25T02:23:06.774Z,9.37
2022-10-25T02:25:37.031Z,8.73
2022-10-25T02:28:09.278Z,8.43
2022-10-25T02:30:40.764Z,8.23
2022-10-25T02:33:08.819Z,8.30
2022-10-25T02:35:38.895Z,8.43
2022-10-25T02:38:07.381Z,7.97
2022-10-25T02:40:35.817Z,8.77
2022-10-25T02:43:03.931Z,8.60
2022-10-25T02:45:32.024Z,7.23
2022-10-25T02:48:00.029Z,7.67
2022-10-25T02:50:28.055Z,8.73
2022-10-25T02:52:57.567Z,7.70
2022-10-25T02:55:25.644Z,9.47
2022-10-25T02:57:53.649Z,9.07
2022-10-25T03:00:21.948Z,8.90
2022-10-25T03:02:50.023Z,8.47
2022-10-25T03:05:18.268Z,9.00
2022-10-25T03:07:46.294Z,8.93
2022-10-25T03:10:15.864Z,8.83
2022-10-25T03:12:44.178Z,9.77
2022-10-25T03:15:12.442Z,9.47
2022-10-25T03:17:40.464Z,8.77
2022-10-25T03:20:10.465Z,8.63
2022-10-25T03:22:38.444Z,9.17
2022-10-25T03:27:42.171Z,9.03
2022-10-25T03:30:11.299Z,8.73
2022-10-25T03:32:39.275Z,8.80
2022-10-25T03:35:09.033Z,9.60
2022-10-25T03:37:39.010Z,8.70
2022-10-25T03:40:08.262Z,10.37
2022-10-25T03:42:36.323Z,10.47
2022-10-25T03:45:06.994Z,9.33
2022-10-25T03:47:35.153Z,9.37
2022-10-25T03:50:03.223Z,8.67
2022-10-25T03:52:31.299Z,8.93
2022-10-25T03:54:59.427Z,10.97
2022-10-25T03:57:27.504Z,11.37
2022-10-25T03:59:58.333Z,9.40
2022-10-25T04:02:28.473Z,9.67
2022-10-25T04:04:56.477Z,10.33
2022-10-25T04:07:24.494Z,10.57
2022-10-25T04:09:52.597Z,9.73
2022-10-25T04:12:20.709Z,10.27
2022-10-25T04:14:48.772Z,10.63
2022-10-25T04:17:16.936Z,10.80
2022-10-25T04:19:47.006Z,9.80
2022-10-25T04:22:15.294Z,9.90
2022-10-25T04:24:43.493Z,10.30
2022-10-25T04:27:11.673Z,9.50
2022-10-25T04:29:39.788Z,10.97
2022-10-25T04:32:08.142Z,11.13
2022-10-25T04:34:36.338Z,10.60
2022-10-25T04:37:05.822Z,12.60
2022-10-25T04:39:34.024Z,10.93
2022-10-25T04:42:03.468Z,11.13
2022-10-25T04:44:31.541Z,10.50
2022-10-25T04:47:00.971Z,12.57
2022-10-25T04:49:29.209Z,12.63
2022-10-25T04:51:57.188Z,12.77
2022-10-25T04:54:26.676Z,12.13
2022-10-25T04:56:54.659Z,12.90
2022-10-25T04:59:23.015Z,11.63
2022-10-25T05:04:24.565Z,11.53
2022-10-25T05:06:52.574Z,12.73
2022-10-25T05:09:20.597Z,12.90
2022-10-25T05:11:50.002Z,14.73
2022-10-25T05:14:18.087Z,11.93
2022-10-25T05:16:46.146Z,12.33
2022-10-25T05:19:14.626Z,16.93
2022-10-25T05:21:42.689Z,14.07
2022-10-25T05:24:10.713Z,11.97
2022-10-25T05:26:39.322Z,14.10
2022-10-25T05:29:10.355Z,15.90
2022-10-25T05:31:39.177Z,12.50
2022-10-25T05:34:07.462Z,11.13
2022-10-25T05:36:35.449Z,11.43
2022-10-25T05:39:03.514Z,11.77
2022-10-25T05:41:34.576Z,13.90
2022-10-25T05:44:05.506Z,12.30
2022-10-25T05:46:35.099Z,11.20
2022-10-25T05:49:03.399Z,11.00
2022-10-25T05:51:35.246Z,12.27
2022-10-25T05:54:07.639Z,11.63
2022-10-25T05:56:37.042Z,12.00
2022-10-25T05:59:08.871Z,12.03
2022-10-25T06:01:40.460Z,10.90
2022-10-25T06:04:09.435Z,10.93
2022-10-25T06:06:38.643Z,10.87
2022-10-25T06:09:07.885Z,11.27
2022-10-25T06:11:35.899Z,10.30
2022-10-25T06:14:04.487Z,9.70
2022-10-25T06:16:32.845Z,11.73
2022-10-25T06:19:02.285Z,11.43
2022-10-25T06:21:31.621Z,11.33
2022-10-25T06:24:00.409Z,10.60
2022-10-25T06:26:30.590Z,10.80
2022-10-25T06:29:00.639Z,11.03
2022-10-25T06:31:30.164Z,11.40
2022-10-25T06:34:00.118Z,12.03
2022-10-25T06:36:31.337Z,11.90
2022-10-25T06:39:05.577Z,10.20
2022-10-25T06:41:37.009Z,12.37
2022-10-25T06:44:07.309Z,11.67
2022-10-25T06:46:57.926Z,11.27
2022-10-25T06:49:25.630Z,10.03
2022-10-25T06:51:55.787Z,10.67
2022-10-25T06:54:25.854Z,9.00
2022-10-25T06:56:53.957Z,11.53
2022-10-25T06:59:22.170Z,10.07
2022-10-25T07:01:50.601Z,8.83
2022-10-25T07:04:19.032Z,8.23
2022-10-25T07:06:50.050Z,9.97
2022-10-25T07:09:22.777Z,8.80
2022-10-25T07:11:50.819Z,11.60
2022-10-25T07:14:19.228Z,9.50
2022-10-25T07:16:47.405Z,9.90
2022-10-25T07:19:15.532Z,9.20
2022-10-25T07:21:45.147Z,7.83
2022-10-25T07:24:13.449Z,8.73
2022-10-25T07:26:42.945Z,9.30
2022-10-25T07:29:11.244Z,8.67
2022-10-25T07:31:43.225Z,8.67
2022-10-25T07:34:13.649Z,8.23
2022-10-25T07:36:41.724Z,8.70
2022-10-25T07:39:10.021Z,7.83
2022-10-25T07:41:38.097Z,6.93
2022-10-25T07:44:11.747Z,7.43
2022-10-25T07:46:43.674Z,6.45
2022-10-25T07:49:11.762Z,6.90
2022-10-25T07:51:39.926Z,7.83
2022-10-25T07:54:08.556Z,7.20
2022-10-25T07:56:36.688Z,7.03
2022-10-25T07:59:04.849Z,6.65
2022-10-25T08:01:34.716Z,7.22
2022-10-25T08:04:02.774Z,7.05
2022-10-25T08:06:31.187Z,7.03
2022-10-25T08:09:05.455Z,6.50
2022-10-25T08:11:43.247Z,6.90
2022-10-25T08:14:11.353Z,6.57
2022-10-25T08:16:40.916Z,6.85
2022-10-25T08:19:09.023Z,6.95
2022-10-25T08:21:37.055Z,7.50
2022-10-25T08:24:05.446Z,6.90
2022-10-25T08:26:36.728Z,7.55
2022-10-25T08:29:05.328Z,6.70
2022-10-25T08:31:33.337Z,7.00
2022-10-25T08:34:02.870Z,6.10
2022-10-25T08:36:31.117Z,6.43
2022-10-25T08:38:59.210Z,7.15
2022-10-25T08:41:36.146Z,7.20
2022-10-25T08:44:23.230Z,8.20
2022-10-25T08:46:58.370Z,8.00
2022-10-25T08:49:34.977Z,7.13
2022-10-25T08:52:04.669Z,7.13
2022-10-25T08:54:37.034Z,7.32
2022-10-25T08:57:16.386Z,6.40
2022-10-25T08:59:49.395Z,7.07
2022-10-25T09:02:23.479Z,6.78
2022-10-25T09:04:53.206Z,7.10
2022-10-25T09:07:42.082Z,6.38
2022-10-25T09:10:22.891Z,6.80
2022-10-25T09:13:00.111Z,7.25
2022-10-25T09:15:43.262Z,6.68
2022-10-25T09:18:17.291Z,7.30
2022-10-25T09:20:51.814Z,6.03
2022-10-25T09:23:29.088Z,6.75
2022-10-25T09:26:06.476Z,7.63
2022-10-25T09:28:52.524Z,6.40
2022-10-25T09:31:24.404Z,6.95
2022-10-25T09:34:01.653Z,6.20
2022-10-25T09:36:38.324Z,7.25
2022-10-25T09:39:15.731Z,6.93
2022-10-25T09:41:48.598Z,7.32
2022-10-25T09:44:24.797Z,7.25
2022-10-25T09:46:56.265Z,6.93
2022-10-25T09:49:30.667Z,7.55
2022-10-25T09:52:08.142Z,7.30
2022-10-25T09:54:42.389Z,5.95
2022-10-25T09:57:10.571Z,6.78
2022-10-25T09:59:38.658Z,6.25
2022-10-25T10:02:06.825Z,7.82
2022-10-25T10:04:38.084Z,7.07
2022-10-25T10:07:13.409Z,7.70
2022-10-25T10:09:45.869Z,7.20
2022-10-25T10:12:23.919Z,7.07
2022-10-25T10:14:57.403Z,7.07
2022-10-25T10:17:26.315Z,8.65
2022-10-25T10:20:14.223Z,9.15
2022-10-25T10:22:50.868Z,8.02
2022-10-25T10:25:22.731Z,7.63
2022-10-25T10:27:53.631Z,8.15
2022-10-25T10:30:29.310Z,8.55
2022-10-25T10:33:00.684Z,8.75
2022-10-25T10:35:31.701Z,10.18
2022-10-25T10:38:27.001Z,9.63
2022-10-25T10:41:13.659Z,8.68
2022-10-25T10:43:42.760Z,8.90
2022-10-25T10:46:14.836Z,9.45
2022-10-25T10:48:45.512Z,9.07
2022-10-25T10:54:24.519Z,8.18
2022-10-25T10:56:57.605Z,8.77
2022-10-25T10:59:32.601Z,7.68
2022-10-25T11:02:13.516Z,7.95
2022-10-25T11:04:49.288Z,8.25
2022-10-25T11:07:27.567Z,8.75
2022-10-25T11:10:20.219Z,7.60
2022-10-25T11:13:06.805Z,7.68
2022-10-25T11:16:03.316Z,6.40
2022-10-25T11:18:41.739Z,8.00
2022-10-25T11:21:17.544Z,7.15
2022-10-25T11:23:58.436Z,7.30
2022-10-25T11:26:37.129Z,7.65
2022-10-25T11:29:12.092Z,7.07
2022-10-25T11:31:55.749Z,6.72
2022-10-25T11:34:34.505Z,7.03
2022-10-25T11:37:11.167Z,7.07
2022-10-25T11:39:52.771Z,7.10
2022-10-25T11:42:39.160Z,7.07
2022-10-25T11:45:37.128Z,6.93
2022-10-25T11:48:19.421Z,7.25
2022-10-25T11:50:59.515Z,6.53
2022-10-25T11:53:43.003Z,6.65
2022-10-25T11:56:23.648Z,6.93
2022-10-25T11:59:03.133Z,7.38
2022-10-25T12:01:46.728Z,6.68
2022-10-25T12:04:39.977Z,6.72
2022-10-25T12:07:17.390Z,5.85
2022-10-25T12:09:55.486Z,7.18
2022-10-25T12:12:27.943Z,7.38
2022-10-25T12:15:01.095Z,6.97
2022-10-25T12:17:31.772Z,6.80
2022-10-25T12:20:03.718Z,7.65
2022-10-25T12:22:38.603Z,6.78
2022-10-25T12:25:14.736Z,6.72
2022-10-25T12:27:49.517Z,6.78
2022-10-25T12:30:21.193Z,7.25
2022-10-25T12:32:55.509Z,6.30
2022-10-25T12:35:28.671Z,6.60
2022-10-25T12:37:59.111Z,6.63
2022-10-25T12:40:29.761Z,6.40
2022-10-25T12:43:05.055Z,7.00
2022-10-25T12:46:07.448Z,6.57
2022-10-25T12:48:52.932Z,6.65
2022-10-25T12:51:38.050Z,5.85
2022-10-25T12:54:30.099Z,6.95
2022-10-25T12:57:09.987Z,6.00
2022-10-25T12:59:50.807Z,6.53
2022-10-25T13:02:47.685Z,6.28
2022-10-25T13:05:34.742Z,6.70
2022-10-25T13:08:05.906Z,6.72
2022-10-25T13:10:37.152Z,6.28
2022-10-25T13:13:09.251Z,7.18
2022-10-25T13:15:43.721Z,6.85
2022-10-25T13:18:28.307Z,6.78
2022-10-25T13:20:56.735Z,6.32
2022-10-25T13:24:01.389Z,5.80
2022-10-25T13:26:55.946Z,6.05
2022-10-25T13:29:47.567Z,6.68
2022-10-25T13:32:18.803Z,6.18
2022-10-25T13:34:50.158Z,7.07
2022-10-25T13:37:45.259Z,7.20
2022-10-25T13:40:24.777Z,7.35
2022-10-25T13:43:02.538Z,6.95
2022-10-25T13:45:40.224Z,6.55
2022-10-25T13:48:21.174Z,6.90
2022-10-25T13:50:55.514Z,7.13
2022-10-25T13:53:26.192Z,7.38
2022-10-25T13:56:01.321Z,6.70
2022-10-25T13:58:53.118Z,6.43
2022-10-25T14:01:56.271Z,7.53
2022-10-25T14:04:39.533Z,7.20
2022-10-25T14:07:50.934Z,7.20
2022-10-25T14:10:29.227Z,6.85
2022-10-25T14:13:09.381Z,8.48
2022-10-25T14:15:44.897Z,8.18
2022-10-25T14:18:19.679Z,7.90
2022-10-25T14:20:50.247Z,8.23
2022-10-25T14:23:24.009Z,7.75
2022-10-25T14:25:56.972Z,8.82
2022-10-25T14:28:27.814Z,7.95
2022-10-25T14:30:58.201Z,8.88
2022-10-25T14:33:31.016Z,7.32
2022-10-25T14:36:10.059Z,7.22
2022-10-25T14:38:53.103Z,7.78
2022-10-25T14:41:24.215Z,7.03
2022-10-25T14:43:52.997Z,7.45
2022-10-25T14:46:23.364Z,8.13
2022-10-25T14:48:56.562Z,7.47
2022-10-25T14:51:28.898Z,21.55
2022-10-25T14:54:04.345Z,29.50
2022-10-25T14:56:36.020Z,20.45
2022-10-25T14:59:06.504Z,10.90
2022-10-25T15:01:35.889Z,9.70
2022-10-25T15:04:04.284Z,9.35
2022-10-25T15:06:33.776Z,7.70
2022-10-25T15:12:19.338Z,9.15
2022-10-25T15:14:48.463Z,12.15
2022-10-25T15:17:20.238Z,11.07
2022-10-25T15:20:03.632Z,9.85
2022-10-25T15:22:34.359Z,10.65
2022-10-25T15:25:17.258Z,10.82
2022-10-25T15:27:45.684Z,13.60
2022-10-25T15:30:35.144Z,8.93
2022-10-25T15:33:03.623Z,9.98
2022-10-25T15:35:34.000Z,9.55
2022-10-25T15:38:02.025Z,9.02
2022-10-25T15:40:31.621Z,9.95
2022-10-25T15:42:59.715Z,9.55
2022-10-25T15:45:28.331Z,9.35
2022-10-25T15:47:58.612Z,8.02
2022-10-25T15:50:27.054Z,10.85
2022-10-25T15:52:55.947Z,9.38
2022-10-25T15:55:27.400Z,9.43
2022-10-25T15:57:56.894Z,11.52
2022-10-25T16:00:30.812Z,10.45
2022-10-25T16:02:59.131Z,10.13
2022-10-25T16:05:29.037Z,8.57
2022-10-25T16:07:58.201Z,10.23
2022-10-25T16:10:28.420Z,9.52
2022-10-25T16:13:03.981Z,11.23
2022-10-25T16:15:32.971Z,10.95
2022-10-25T16:18:01.037Z,10.70
2022-10-25T16:20:30.701Z,11.40
2022-10-25T16:22:59.408Z,11.98
2022-10-25T16:25:33.058Z,11.38
2022-10-25T16:28:03.058Z,11.30
2022-10-25T16:30:36.487Z,12.38
2022-10-25T16:33:06.457Z,14.65
2022-10-25T16:35:35.131Z,15.20
2022-10-25T16:38:04.483Z,13.23
2022-10-25T16:40:32.837Z,13.27
2022-10-25T16:43:02.347Z,12.57
2022-10-25T16:45:35.043Z,16.73
2022-10-25T16:50:35.208Z,16.73
2022-10-25T16:53:07.246Z,18.58
2022-10-25T16:55:35.343Z,16.10
2022-10-25T16:58:05.463Z,13.32
2022-10-25T17:00:35.887Z,12.20
2022-10-25T17:03:04.715Z,12.80
2022-10-25T17:05:33.871Z,11.93
2022-10-25T17:08:01.997Z,11.80
2022-10-25T17:10:33.151Z,13.02
2022-10-25T17:13:06.214Z,14.30
2022-10-25T17:15:35.226Z,13.63
2022-10-25T17:18:03.446Z,13.18
2022-10-25T17:20:31.570Z,12.65
2022-10-25T17:22:59.690Z,12.98
2022-10-25T17:25:27.879Z,19.27
2022-10-25T17:27:56.141Z,16.52
2022-10-25T17:30:25.724Z,15.18
2022-10-25T17:32:54.052Z,16.63
2022-10-25T17:35:29.595Z,14.30
2022-10-25T17:37:58.077Z,13.95
2022-10-25T17:40:26.213Z,13.05
2022-10-25T17:42:54.310Z,13.38
2022-10-25T17:45:22.361Z,14.20
2022-10-25T17:47:51.794Z,13.00
2022-10-25T17:50:22.223Z,13.23
2022-10-25T17:52:51.518Z,14.23
2022-10-25T17:55:19.749Z,16.98
2022-10-25T17:57:48.079Z,15.88
2022-10-25T18:00:19.990Z,16.45
2022-10-25T18:02:50.952Z,15.48
2022-10-25T18:05:21.823Z,14.52
2022-10-25T18:07:50.570Z,13.57
2022-10-25T18:10:18.935Z,15.70
2022-10-25T18:12:47.347Z,12.52
2022-10-25T18:15:15.793Z,12.18
2022-10-25T18:17:46.594Z,11.23
2022-10-25T18:20:15.689Z,13.38
2022-10-25T18:22:45.589Z,11.27
2022-10-25T18:25:13.733Z,11.10
2022-10-25T18:27:42.152Z,10.98
2022-10-25T18:30:12.014Z,9.32
2022-10-25T18:32:40.677Z,9.73
2022-10-25T18:35:09.574Z,10.32
2022-10-25T18:37:37.839Z,10.63
2022-10-25T18:40:10.304Z,10.57
2022-10-25T18:42:38.873Z,12.63
2022-10-25T18:45:09.549Z,11.60
2022-10-25T18:47:37.903Z,8.85
2022-10-25T18:50:07.805Z,10.65
2022-10-25T18:52:35.852Z,9.77
2022-10-25T18:55:03.934Z,10.45
2022-10-25T18:57:33.553Z,10.27
2022-10-25T19:00:01.595Z,10.82
2022-10-25T19:02:32.943Z,10.77
2022-10-25T19:05:03.549Z,11.45
2022-10-25T19:07:32.304Z,10.75
2022-10-25T19:10:00.279Z,12.18
2022-10-25T19:12:28.424Z,10.63
2022-10-25T19:14:58.744Z,13.07
2022-10-25T19:17:27.482Z,11.40
2022-10-25T19:19:55.730Z,11.43
2022-10-25T19:22:23.915Z,10.52
2022-10-25T19:24:52.647Z,11.10
2022-10-25T19:27:20.944Z,11.10
2022-10-25T19:29:49.473Z,12.73
2022-10-25T19:32:19.036Z,13.57
2022-10-25T19:34:47.471Z,14.02
2022-10-25T19:37:15.595Z,12.20
2022-10-25T19:39:44.990Z,13.98
2022-10-25T19:42:13.069Z,13.05
2022-10-25T19:44:41.547Z,13.48
2022-10-25T19:47:09.895Z,14.25
2022-10-25T19:49:39.466Z,14.18
2022-10-25T19:52:07.560Z,13.50
2022-10-25T19:54:35.663Z,14.50
2022-10-25T19:57:05.703Z,13.73
2022-10-25T19:59:33.920Z,14.10
2022-10-25T20:02:02.223Z,14.02
2022-10-25T20:04:30.588Z,13.35
2022-10-25T20:07:00.046Z,11.63
2022-10-25T20:09:28.301Z,13.60
2022-10-25T20:11:57.373Z,12.40
2022-10-25T20:14:25.680Z,12.82
2022-10-25T20:16:53.816Z,12.38
2022-10-25T20:19:22.412Z,13.43
2022-10-25T20:21:50.528Z,13.10
2022-10-25T20:24:20.009Z,13.02
2022-10-25T20:26:49.883Z,12.77
2022-10-25T20:29:21.389Z,13.52
2022-10-25T20:31:50.171Z,12.88
2022-10-25T20:34:19.084Z,13.10
2022-10-25T20:36:47.738Z,14.63
2022-10-25T20:39:15.851Z,13.45
2022-10-25T20:41:45.940Z,13.55
2022-10-25T20:44:14.748Z,13.43
2022-10-25T20:46:43.196Z,13.30
2022-10-25T20:49:11.333Z,12.07
2022-10-25T20:51:39.414Z,12.30
2022-10-25T20:54:09.853Z,13.65
2022-10-25T20:56:39.606Z,13.15
2022-10-25T20:59:09.821Z,12.18
2022-10-25T21:01:38.383Z,12.00
2022-10-25T21:04:06.637Z,12.40
2022-10-25T21:06:34.910Z,11.70
2022-10-25T21:09:03.214Z,12.15
2022-10-25T21:11:32.657Z,11.73
2022-10-25T21:14:00.873Z,11.57
2022-10-25T21:16:31.596Z,12.80
2022-10-25T21:19:03.946Z,11.40
2022-10-25T21:21:32.493Z,11.57
2022-10-25T21:24:01.565Z,10.88
2022-10-25T21:26:29.603Z,10.27
2022-10-25T21:28:57.734Z,11.75
2022-10-25T21:31:25.824Z,10.85
2022-10-25T21:33:59.303Z,10.43
2022-10-25T21:36:28.450Z,9.70
2022-10-25T21:38:56.948Z,10.60
2022-10-25T21:41:27.022Z,9.20
2022-10-25T21:43:56.321Z,10.23
2022-10-25T21:46:25.762Z,9.38
2022-10-25T21:48:56.017Z,11.00
2022-10-25T21:51:25.481Z,10.43
2022-10-25T21:53:54.066Z,12.55
2022-10-25T21:56:23.259Z,13.77
2022-10-25T21:58:52.037Z,12.93
2022-10-25T22:01:21.979Z,15.05
2022-10-25T22:03:50.915Z,14.00
2022-10-25T22:06:22.586Z,15.35
2022-10-25T22:08:51.589Z,14.63
2022-10-25T22:11:21.711Z,15.77
2022-10-25T22:13:50.169Z,14.77
2022-10-25T22:16:20.338Z,14.65
2022-10-25T22:18:51.465Z,13.85
2022-10-25T22:21:21.246Z,13.88
2022-10-25T22:23:49.657Z,13.38
2022-10-25T22:26:20.386Z,13.15
2022-10-25T22:28:52.122Z,13.23
2022-10-25T22:31:20.880Z,14.85
2022-10-25T22:33:53.111Z,16.10
2022-10-25T22:36:24.078Z,15.82
2022-10-25T22:38:52.214Z,14.00
2022-10-25T22:41:21.804Z,15.20
2022-10-25T22:43:51.249Z,15.15
2022-10-25T22:46:22.253Z,12.73
2022-10-25T22:48:50.315Z,13.15
2022-10-25T22:51:19.005Z,11.75
2022-10-25T22:53:48.977Z,12.85
2022-10-25T22:56:19.249Z,12.88
2022-10-25T22:58:50.112Z,11.55
2022-10-25T23:01:20.387Z,9.03
2022-10-25T23:03:50.286Z,10.40
2022-10-25T23:06:21.090Z,9.63
2022-10-25T23:08:52.892Z,9.32
2022-10-25T23:11:23.141Z,9.00
2022-10-25T23:13:51.354Z,8.35
2022-10-25T23:16:19.414Z,9.05
2022-10-25T23:18:47.803Z,7.75
2022-10-25T23:21:18.417Z,7.10
2022-10-25T23:23:47.014Z,7.63
2022-10-25T23:26:20.319Z,8.00
2022-10-25T23:28:48.529Z,8.85
2022-10-25T23:31:16.919Z,7.57
2022-10-25T23:33:45.509Z,7.70
2022-10-25T23:36:15.687Z,8.18
2022-10-25T23:38:44.087Z,8.00
2022-10-25T23:41:12.590Z,7.40
2022-10-25T23:43:42.268Z,8.27
2022-10-25T23:46:11.222Z,6.88
2022-10-25T23:48:39.712Z,6.80
2022-10-25T23:51:09.565Z,6.50
2022-10-25T23:53:38.081Z,7.05
2022-10-25T23:56:08.017Z,5.95
2022-10-25T23:58:36.189Z,5.90
